^^
Station Historical Data
 
Daily Summary for November 23, 2017 Units:  English    Metric   Both
« Previous Day
Next Day »
Daily Weekly Monthly Yearly Custom
  Current: High: Low: Average:
Temperature: 37.2 °F 40.8 °F 35.9 °F 38.1 °F
Dew Point: 32.8 °F 34.4 °F 31.2 °F 32.9 °F
Humidity: 84% 85% 76% 82%
Wind Speed: 2.3mph 4.6mph 0.0mph 1mph
Wind Gust: 2.3mph 4.6mph - -
WindSW - - WSW
Pressure: 30.07 in 30.08 in 30.01 in -
Precipitation: 0.00 in      
Historical Graphs
 
 
Tabular Data for November 23, 2017
Time Temperature Dew Point Pressure Wind Wind Speed Wind Gust Humidity Rainfall Rate (Hourly) solar Conditions
00:01 40.8 °F 33.8 °F 30.05 in Calm     76% 0.00 in WeatherDisplay:10.37 W/m2 RA
00:11 40.2 °F 33.2 °F 30.05 in Calm     76% 0.00 in WeatherDisplay:10.37 W/m2 CLR
00:16 40.0 °F 33.7 °F 30.05 in Calm     78% 0.00 in WeatherDisplay:10.37 W/m2 CLR
00:27 39.5 °F 33.5 °F 30.05 in Calm     79% 0.00 in WeatherDisplay:10.37 W/m2 CLR
00:32 39.4 °F 33.7 °F 30.04 in Calm     80% 0.00 in WeatherDisplay:10.37 W/m2 CLR
00:37 39.4 °F 34.4 °F 30.04 in Calm     82% 0.00 in WeatherDisplay:10.37 W/m2 CLR
00:43 39.6 °F 34.2 °F 30.04 in SW 4.6 mph 4.6 mph 81% 0.00 in WeatherDisplay:10.37 W/m2 CLR
00:48 39.6 °F 33.6 °F 30.04 in SW 1.2 mph 1.2 mph 79% 0.00 in WeatherDisplay:10.37 W/m2 CLR
00:53 39.3 °F 33.0 °F 30.04 in SW 1.2 mph   78% 0.00 in WeatherDisplay:10.37 W/m2 CLR
00:58 39.3 °F 33.6 °F 30.03 in Calm     80% 0.00 in WeatherDisplay:10.37 W/m2 CLR
01:08 39.5 °F 33.8 °F 30.01 in Calm     80% 0.00 in WeatherDisplay:10.37 W/m2 CLR
01:13 39.3 °F 33.0 °F 30.03 in Calm     78% 0.00 in WeatherDisplay:10.37 W/m2 CLR
01:18 38.8 °F 32.8 °F 30.03 in SW 1.2 mph 1.2 mph 79% 0.00 in WeatherDisplay:10.37 W/m2 CLR
01:23 38.9 °F 33.3 °F 30.03 in West 4.0 mph 4.0 mph 80% 0.00 in WeatherDisplay:10.37 W/m2 CLR
01:43 39.3 °F 33.0 °F 30.03 in NNW 2.3 mph 2.3 mph 78% 0.00 in WeatherDisplay:10.37 W/m2 CLR
01:48 38.8 °F 32.5 °F 30.03 in Calm     78% 0.00 in WeatherDisplay:10.37 W/m2 CLR
01:53 38.5 °F 32.6 °F 30.03 in Calm     79% 0.00 in WeatherDisplay:10.37 W/m2 CLR
01:58 38.2 °F 32.6 °F 30.04 in Calm     80% 0.00 in WeatherDisplay:10.37 W/m2 CLR
02:03 38.0 °F 32.7 °F 30.06 in Calm     81% 0.00 in WeatherDisplay:10.37 W/m2 CLR
02:13 37.9 °F 33.5 °F 30.06 in SSW 3.5 mph 3.5 mph 84% 0.00 in WeatherDisplay:10.37 W/m2 CLR
02:18 38.0 °F 33.3 °F 30.05 in Calm     83% 0.00 in WeatherDisplay:10.37 W/m2 CLR
02:23 38.1 °F 33.4 °F 30.06 in SW 3.5 mph 3.5 mph 83% 0.00 in WeatherDisplay:10.37 W/m2 CLR
02:38 37.8 °F 33.4 °F 30.05 in Calm     84% 0.00 in WeatherDisplay:10.37 W/m2 CLR
02:43 38.2 °F 33.8 °F 30.05 in SW 3.5 mph 3.5 mph 84% 0.00 in WeatherDisplay:10.37 W/m2 CLR
02:53 38.3 °F 33.0 °F 30.05 in SW 1.2 mph 1.2 mph 81% 0.00 in WeatherDisplay:10.37 W/m2 CLR
02:58 38.2 °F 33.2 °F 30.05 in SW 1.2 mph   82% 0.00 in WeatherDisplay:10.37 W/m2 CLR
03:08 38.1 °F 32.8 °F 30.06 in Calm     81% 0.00 in WeatherDisplay:10.37 W/m2 CLR
03:13 37.9 °F 32.9 °F 30.05 in Calm     82% 0.00 in WeatherDisplay:10.37 W/m2 CLR
03:18 38.0 °F 33.3 °F 30.05 in SW 4.6 mph 4.6 mph 83% 0.00 in WeatherDisplay:10.37 W/m2 CLR
03:23 38.1 °F 33.4 °F 30.05 in SW 1.2 mph 1.2 mph 83% 0.00 in WeatherDisplay:10.37 W/m2 CLR
03:28 38.1 °F 33.1 °F 30.06 in Calm     82% 0.00 in WeatherDisplay:10.37 W/m2 CLR
03:33 38.0 °F 33.0 °F 30.05 in Calm     82% 0.00 in WeatherDisplay:10.37 W/m2 CLR
03:38 37.9 °F 32.9 °F 30.05 in Calm     82% 0.00 in WeatherDisplay:10.37 W/m2 CLR
03:48 37.5 °F 32.8 °F 30.04 in Calm     83% 0.00 in WeatherDisplay:10.37 W/m2 CLR
03:53 37.4 °F 32.7 °F 30.05 in SW 1.2 mph 1.2 mph 83% 0.00 in WeatherDisplay:10.37 W/m2 CLR
03:58 37.1 °F 32.4 °F 30.05 in SW 3.5 mph 3.5 mph 83% 0.00 in WeatherDisplay:10.37 W/m2 CLR
04:03 37.0 °F 32.3 °F 30.06 in SW 2.3 mph 2.3 mph 83% 0.00 in WeatherDisplay:10.37 W/m2 CLR
04:08 37.0 °F 32.3 °F 30.06 in Calm   0.1 mph 83% 0.00 in WeatherDisplay:10.37 W/m2 CLR
04:13 37.1 °F 32.7 °F 30.06 in WSW 1.2 mph 1.2 mph 84% 0.00 in WeatherDisplay:10.37 W/m2 CLR
04:18 37.3 °F 32.6 °F 30.06 in Calm     83% 0.00 in WeatherDisplay:10.37 W/m2 CLR
04:23 37.3 °F 32.6 °F 30.06 in WSW 1.2 mph   83% 0.00 in WeatherDisplay:10.37 W/m2 CLR
04:33 36.9 °F 31.6 °F 30.06 in Calm     81% 0.00 in WeatherDisplay:10.37 W/m2 CLR
04:38 36.5 °F 31.2 °F 30.06 in Calm     81% 0.00 in WeatherDisplay:10.37 W/m2 CLR
04:43 36.2 °F 31.2 °F 30.07 in Calm     82% 0.00 in WeatherDisplay:10.37 W/m2 CLR
04:48 36.0 °F 31.3 °F 30.07 in Calm     83% 0.00 in WeatherDisplay:10.37 W/m2 CLR
04:53 35.9 °F 31.5 °F 30.06 in Calm     84% 0.00 in WeatherDisplay:10.37 W/m2 CLR
04:58 36.0 °F 31.9 °F 30.06 in Calm     85% 0.00 in WeatherDisplay:10.37 W/m2 CLR
05:13 36.4 °F 32.3 °F 30.08 in NNW 2.3 mph 2.3 mph 85% 0.00 in WeatherDisplay:10.37 W/m2 CLR
05:23 37.0 °F 32.6 °F 30.08 in SW 1.2 mph 1.2 mph 84% 0.00 in WeatherDisplay:10.37 W/m2 CLR
05:28 37.1 °F 32.7 °F 30.07 in Calm     84% 0.00 in WeatherDisplay:10.37 W/m2 CLR
05:38 37.1 °F 32.7 °F 30.08 in SW 1.2 mph 1.2 mph 84% 0.00 in WeatherDisplay:10.37 W/m2 CLR
05:43 37.2 °F 32.8 °F 30.07 in SW 2.3 mph 2.3 mph 84% 0.00 in WeatherDisplay:10.37 W/m2 CLR
Windsor Co Weather
Compliments of Weather Underground - 1.75 mb